sensor_id;sensor_type;location;lat;lon;timestamp;P1;durP1;ratioP1;P2;durP2;ratioP2
21517;SDS011;61765;45.794;24.150;2024-03-23T00:54:58;38.35;;;21.50;;
21517;SDS011;61765;45.794;24.150;2024-03-23T01:03:00;39.65;;;20.48;;
21517;SDS011;61765;45.794;24.150;2024-03-23T01:11:05;35.53;;;18.60;;
21517;SDS011;61765;45.794;24.150;2024-03-23T01:19:06;27.55;;;16.70;;
21517;SDS011;61765;45.794;24.150;2024-03-23T01:27:11;27.00;;;14.95;;
21517;SDS011;61765;45.794;24.150;2024-03-23T01:35:13;26.50;;;15.85;;
21517;SDS011;61765;45.794;24.150;2024-03-23T01:43:18;23.40;;;12.18;;
21517;SDS011;61765;45.794;24.150;2024-03-23T01:51:20;20.08;;;10.25;;
21517;SDS011;61765;45.794;24.150;2024-03-23T01:59:25;18.45;;;10.70;;
21517;SDS011;61765;45.794;24.150;2024-03-23T02:07:27;17.20;;;10.20;;
21517;SDS011;61765;45.794;24.150;2024-03-23T02:15:31;18.95;;;10.88;;
21517;SDS011;61765;45.794;24.150;2024-03-23T02:23:36;15.32;;;9.25;;
21517;SDS011;61765;45.794;24.150;2024-03-23T02:31:38;18.65;;;10.35;;
21517;SDS011;61765;45.794;24.150;2024-03-23T02:39:42;18.75;;;11.57;;
21517;SDS011;61765;45.794;24.150;2024-03-23T02:47:44;14.88;;;10.10;;
21517;SDS011;61765;45.794;24.150;2024-03-23T02:55:49;16.25;;;9.30;;
21517;SDS011;61765;45.794;24.150;2024-03-23T03:03:51;17.73;;;10.13;;
21517;SDS011;61765;45.794;24.150;2024-03-23T03:11:56;15.98;;;9.85;;
21517;SDS011;61765;45.794;24.150;2024-03-23T03:19:57;17.80;;;10.23;;
21517;SDS011;61765;45.794;24.150;2024-03-23T03:28:02;19.73;;;9.75;;
21517;SDS011;61765;45.794;24.150;2024-03-23T03:36:05;16.58;;;9.88;;
21517;SDS011;61765;45.794;24.150;2024-03-23T03:44:10;14.75;;;9.07;;
21517;SDS011;61765;45.794;24.150;2024-03-23T03:52:12;18.15;;;9.73;;
21517;SDS011;61765;45.794;24.150;2024-03-23T04:00:17;18.55;;;10.25;;
21517;SDS011;61765;45.794;24.150;2024-03-23T04:08:19;13.93;;;8.95;;
21517;SDS011;61765;45.794;24.150;2024-03-23T04:16:27;18.27;;;10.55;;
21517;SDS011;61765;45.794;24.150;2024-03-23T04:24:29;20.67;;;9.95;;
21517;SDS011;61765;45.794;24.150;2024-03-23T04:32:34;15.13;;;9.05;;
21517;SDS011;61765;45.794;24.150;2024-03-23T04:40:36;17.63;;;10.27;;
21517;SDS011;61765;45.794;24.150;2024-03-23T04:48:41;15.40;;;9.45;;
21517;SDS011;61765;45.794;24.150;2024-03-23T04:56:45;19.23;;;10.50;;
21517;SDS011;61765;45.794;24.150;2024-03-23T05:04:49;24.13;;;13.13;;
21517;SDS011;61765;45.794;24.150;2024-03-23T05:12:51;17.85;;;10.43;;
21517;SDS011;61765;45.794;24.150;2024-03-23T05:20:58;17.83;;;10.52;;
21517;SDS011;61765;45.794;24.150;2024-03-23T05:29:00;19.50;;;10.88;;
21517;SDS011;61765;45.794;24.150;2024-03-23T05:37:05;19.88;;;10.65;;
21517;SDS011;61765;45.794;24.150;2024-03-23T05:45:07;13.70;;;8.65;;
21517;SDS011;61765;45.794;24.150;2024-03-23T05:53:12;13.70;;;7.97;;
21517;SDS011;61765;45.794;24.150;2024-03-23T06:01:15;16.35;;;8.82;;
21517;SDS011;61765;45.794;24.150;2024-03-23T06:09:20;14.73;;;9.15;;
21517;SDS011;61765;45.794;24.150;2024-03-23T06:17:22;14.60;;;9.48;;
21517;SDS011;61765;45.794;24.150;2024-03-23T06:25:26;21.42;;;9.80;;
21517;SDS011;61765;45.794;24.150;2024-03-23T06:33:28;16.75;;;9.80;;
21517;SDS011;61765;45.794;24.150;2024-03-23T06:41:33;16.90;;;9.48;;
21517;SDS011;61765;45.794;24.150;2024-03-23T06:49:35;19.88;;;9.27;;
21517;SDS011;61765;45.794;24.150;2024-03-23T06:57:39;24.95;;;10.73;;
21517;SDS011;61765;45.794;24.150;2024-03-23T07:05:41;24.05;;;10.32;;
21517;SDS011;61765;45.794;24.150;2024-03-23T07:13:46;18.55;;;10.77;;
21517;SDS011;61765;45.794;24.150;2024-03-23T07:21:50;19.92;;;10.25;;
21517;SDS011;61765;45.794;24.150;2024-03-23T07:29:55;17.08;;;9.07;;
21517;SDS011;61765;45.794;24.150;2024-03-23T07:37:57;15.98;;;9.20;;
21517;SDS011;61765;45.794;24.150;2024-03-23T07:46:01;15.40;;;9.27;;
21517;SDS011;61765;45.794;24.150;2024-03-23T07:54:04;13.93;;;7.97;;
21517;SDS011;61765;45.794;24.150;2024-03-23T08:02:09;13.00;;;7.90;;
21517;SDS011;61765;45.794;24.150;2024-03-23T08:10:11;14.95;;;8.70;;
21517;SDS011;61765;45.794;24.150;2024-03-23T08:18:16;14.18;;;8.77;;
21517;SDS011;61765;45.794;24.150;2024-03-23T08:26:18;14.60;;;8.73;;
21517;SDS011;61765;45.794;24.150;2024-03-23T08:34:23;14.07;;;9.15;;
21517;SDS011;61765;45.794;24.150;2024-03-23T08:42:25;18.13;;;7.78;;
21517;SDS011;61765;45.794;24.150;2024-03-23T08:50:29;14.77;;;8.68;;
21517;SDS011;61765;45.794;24.150;2024-03-23T08:58:31;14.75;;;8.95;;
21517;SDS011;61765;45.794;24.150;2024-03-23T09:06:36;15.57;;;9.52;;
21517;SDS011;61765;45.794;24.150;2024-03-23T09:14:38;14.38;;;10.30;;
21517;SDS011;61765;45.794;24.150;2024-03-23T09:22:43;18.45;;;9.07;;
21517;SDS011;61765;45.794;24.150;2024-03-23T09:30:45;17.02;;;10.27;;
21517;SDS011;61765;45.794;24.150;2024-03-23T09:38:50;23.50;;;11.60;;
21517;SDS011;61765;45.794;24.150;2024-03-23T09:46:52;17.27;;;9.50;;
21517;SDS011;61765;45.794;24.150;2024-03-23T09:54:56;12.00;;;8.20;;
21517;SDS011;61765;45.794;24.150;2024-03-23T10:02:58;13.27;;;7.85;;
21517;SDS011;61765;45.794;24.150;2024-03-23T10:11:14;14.98;;;8.45;;
21517;SDS011;61765;45.794;24.150;2024-03-23T10:19:18;12.27;;;8.75;;
21517;SDS011;61765;45.794;24.150;2024-03-23T10:27:35;9.98;;;8.73;;
21517;SDS011;61765;45.794;24.150;2024-03-23T10:35:37;15.60;;;7.60;;
21517;SDS011;61765;45.794;24.150;2024-03-23T10:43:41;11.07;;;7.60;;
21517;SDS011;61765;45.794;24.150;2024-03-23T10:51:45;10.23;;;7.50;;
21517;SDS011;61765;45.794;24.150;2024-03-23T10:59:50;11.48;;;7.47;;
21517;SDS011;61765;45.794;24.150;2024-03-23T11:07:53;9.43;;;8.43;;
21517;SDS011;61765;45.794;24.150;2024-03-23T11:15:58;16.15;;;14.40;;
21517;SDS011;61765;45.794;24.150;2024-03-23T11:24:14;9.15;;;7.68;;
21517;SDS011;61765;45.794;24.150;2024-03-23T11:32:19;8.32;;;7.50;;
21517;SDS011;61765;45.794;24.150;2024-03-23T11:40:23;10.63;;;6.78;;
21517;SDS011;61765;45.794;24.150;2024-03-23T11:48:28;9.73;;;7.00;;
21517;SDS011;61765;45.794;24.150;2024-03-23T11:56:30;9.32;;;6.68;;
21517;SDS011;61765;45.794;24.150;2024-03-23T12:04:36;7.57;;;6.43;;
21517;SDS011;61765;45.794;24.150;2024-03-23T12:12:38;8.80;;;6.85;;
21517;SDS011;61765;45.794;24.150;2024-03-23T12:20:43;9.00;;;7.82;;
21517;SDS011;61765;45.794;24.150;2024-03-23T12:28:45;10.18;;;8.32;;
21517;SDS011;61765;45.794;24.150;2024-03-23T12:36:50;13.40;;;7.95;;
21517;SDS011;61765;45.794;24.150;2024-03-23T12:44:52;12.38;;;7.68;;
21517;SDS011;61765;45.794;24.150;2024-03-23T12:52:56;12.65;;;8.45;;
21517;SDS011;61765;45.794;24.150;2024-03-23T13:00:58;9.48;;;6.78;;
21517;SDS011;61765;45.794;24.150;2024-03-23T13:09:03;11.23;;;7.17;;
21517;SDS011;61765;45.794;24.150;2024-03-23T13:17:06;11.88;;;7.43;;
21517;SDS011;61765;45.794;24.150;2024-03-23T13:25:10;13.98;;;7.20;;
21517;SDS011;61765;45.794;24.150;2024-03-23T13:33:12;11.10;;;7.75;;
21517;SDS011;61765;45.794;24.150;2024-03-23T13:41:17;12.20;;;8.90;;
21517;SDS011;61765;45.794;24.150;2024-03-23T13:49:24;12.20;;;8.18;;
21517;SDS011;61765;45.794;24.150;2024-03-23T13:57:30;11.50;;;7.30;;
21517;SDS011;61765;45.794;24.150;2024-03-23T14:05:32;11.32;;;7.43;;
21517;SDS011;61765;45.794;24.150;2024-03-23T14:13:37;11.83;;;7.47;;
21517;SDS011;61765;45.794;24.150;2024-03-23T14:21:39;10.07;;;7.03;;
21517;SDS011;61765;45.794;24.150;2024-03-23T14:29:43;10.10;;;7.53;;
21517;SDS011;61765;45.794;24.150;2024-03-23T14:37:47;10.35;;;7.03;;
21517;SDS011;61765;45.794;24.150;2024-03-23T14:54:10;10.88;;;7.47;;
21517;SDS011;61765;45.794;24.150;2024-03-23T15:02:14;16.20;;;9.47;;
21517;SDS011;61765;45.794;24.150;2024-03-23T15:10:16;12.32;;;8.35;;
21517;SDS011;61765;45.794;24.150;2024-03-23T15:18:21;13.73;;;9.07;;
21517;SDS011;61765;45.794;24.150;2024-03-23T15:26:26;10.90;;;7.57;;
21517;SDS011;61765;45.794;24.150;2024-03-23T15:34:31;11.00;;;7.20;;
21517;SDS011;61765;45.794;24.150;2024-03-23T15:42:33;12.68;;;7.55;;
21517;SDS011;61765;45.794;24.150;2024-03-23T15:50:37;8.27;;;6.83;;
21517;SDS011;61765;45.794;24.150;2024-03-23T15:58:40;9.00;;;6.60;;
21517;SDS011;61765;45.794;24.150;2024-03-23T16:06:44;9.60;;;6.80;;
21517;SDS011;61765;45.794;24.150;2024-03-23T16:14:46;11.95;;;7.00;;
21517;SDS011;61765;45.794;24.150;2024-03-23T16:22:51;9.35;;;6.07;;
21517;SDS011;61765;45.794;24.150;2024-03-23T16:30:56;10.50;;;6.70;;
21517;SDS011;61765;45.794;24.150;2024-03-23T16:39:02;15.38;;;7.43;;
21517;SDS011;61765;45.794;24.150;2024-03-23T16:47:04;12.63;;;7.60;;
21517;SDS011;61765;45.794;24.150;2024-03-23T16:55:09;14.65;;;9.23;;
21517;SDS011;61765;45.794;24.150;2024-03-23T17:03:11;14.65;;;9.13;;
21517;SDS011;61765;45.794;24.150;2024-03-23T17:11:16;14.70;;;9.30;;
21517;SDS011;61765;45.794;24.150;2024-03-23T17:19:18;16.95;;;10.20;;
21517;SDS011;61765;45.794;24.150;2024-03-23T17:27:22;20.48;;;11.75;;
21517;SDS011;61765;45.794;24.150;2024-03-23T17:35:24;13.02;;;10.20;;
21517;SDS011;61765;45.794;24.150;2024-03-23T17:43:31;16.58;;;11.10;;
21517;SDS011;61765;45.794;24.150;2024-03-23T17:51:34;20.10;;;10.35;;
21517;SDS011;61765;45.794;24.150;2024-03-23T17:59:39;66.28;;;11.55;;
21517;SDS011;61765;45.794;24.150;2024-03-23T18:07:41;25.25;;;11.85;;
21517;SDS011;61765;45.794;24.150;2024-03-23T18:15:54;22.75;;;15.43;;
21517;SDS011;61765;45.794;24.150;2024-03-23T18:23:56;31.98;;;19.58;;
21517;SDS011;61765;45.794;24.150;2024-03-23T18:32:01;34.58;;;22.20;;
21517;SDS011;61765;45.794;24.150;2024-03-23T18:40:04;39.85;;;25.48;;
21517;SDS011;61765;45.794;24.150;2024-03-23T18:48:10;38.95;;;26.45;;
21517;SDS011;61765;45.794;24.150;2024-03-23T18:56:11;41.13;;;25.58;;
21517;SDS011;61765;45.794;24.150;2024-03-23T19:04:16;39.90;;;25.30;;
21517;SDS011;61765;45.794;24.150;2024-03-23T19:12:18;41.17;;;25.25;;
21517;SDS011;61765;45.794;24.150;2024-03-23T19:20:23;44.90;;;27.02;;
21517;SDS011;61765;45.794;24.150;2024-03-23T19:28:25;39.95;;;27.50;;
21517;SDS011;61765;45.794;24.150;2024-03-23T19:36:32;41.47;;;27.85;;
21517;SDS011;61765;45.794;24.150;2024-03-23T19:44:34;42.17;;;27.13;;
21517;SDS011;61765;45.794;24.150;2024-03-23T19:52:39;42.88;;;28.05;;
21517;SDS011;61765;45.794;24.150;2024-03-23T20:00:41;39.75;;;26.88;;
21517;SDS011;61765;45.794;24.150;2024-03-23T20:08:46;45.08;;;27.33;;
21517;SDS011;61765;45.794;24.150;2024-03-23T20:16:48;47.35;;;28.35;;
21517;SDS011;61765;45.794;24.150;2024-03-23T20:24:52;45.58;;;28.92;;
21517;SDS011;61765;45.794;24.150;2024-03-23T20:32:54;55.25;;;32.70;;
21517;SDS011;61765;45.794;24.150;2024-03-23T20:40:59;52.42;;;31.15;;
21517;SDS011;61765;45.794;24.150;2024-03-23T20:49:01;48.85;;;31.80;;
21517;SDS011;61765;45.794;24.150;2024-03-23T20:57:06;57.10;;;34.42;;
21517;SDS011;61765;45.794;24.150;2024-03-23T21:05:08;52.88;;;33.50;;
21517;SDS011;61765;45.794;24.150;2024-03-23T21:13:13;55.22;;;33.22;;
21517;SDS011;61765;45.794;24.150;2024-03-23T21:21:15;56.92;;;32.10;;
21517;SDS011;61765;45.794;24.150;2024-03-23T21:29:19;55.92;;;31.20;;
21517;SDS011;61765;45.794;24.150;2024-03-23T21:37:22;56.90;;;33.58;;
21517;SDS011;61765;45.794;24.150;2024-03-23T21:45:26;50.40;;;30.48;;
21517;SDS011;61765;45.794;24.150;2024-03-23T21:53:28;46.88;;;29.17;;
21517;SDS011;61765;45.794;24.150;2024-03-23T22:01:33;47.42;;;28.05;;
21517;SDS011;61765;45.794;24.150;2024-03-23T22:09:35;49.13;;;27.08;;
21517;SDS011;61765;45.794;24.150;2024-03-23T22:17:40;41.45;;;23.33;;
21517;SDS011;61765;45.794;24.150;2024-03-23T22:25:47;35.15;;;21.17;;
21517;SDS011;61765;45.794;24.150;2024-03-23T22:33:51;36.40;;;21.98;;
21517;SDS011;61765;45.794;24.150;2024-03-23T22:41:53;27.90;;;17.42;;
21517;SDS011;61765;45.794;24.150;2024-03-23T22:49:58;30.65;;;17.80;;
21517;SDS011;61765;45.794;24.150;2024-03-23T22:58:00;27.85;;;16.52;;
21517;SDS011;61765;45.794;24.150;2024-03-23T23:06:05;26.48;;;16.17;;
21517;SDS011;61765;45.794;24.150;2024-03-23T23:14:07;22.38;;;15.43;;
21517;SDS011;61765;45.794;24.150;2024-03-23T23:22:12;24.77;;;14.07;;
21517;SDS011;61765;45.794;24.150;2024-03-23T23:30:14;22.50;;;13.70;;
21517;SDS011;61765;45.794;24.150;2024-03-23T23:38:18;22.85;;;13.90;;
21517;SDS011;61765;45.794;24.150;2024-03-23T23:46:21;24.08;;;13.77;;
21517;SDS011;61765;45.794;24.150;2024-03-23T23:54:25;23.38;;;13.63;;
